Ontario, California
Current Conditions -  °F | °C
As of 9:35 AM on Tuesday 21 Oct 2014 (Local Time) from KONT Reporting Station
Haze Haze  
Wind Chill: 63°   Ceiling: 600
Heat Index: 63°   Visibility: 1.7mi
Dew Point: 59°   Wind: 0mph
Humidity: 87%   Direction: NA
Pressure: 29.94"   Gusts: NA
Location:  34.06°N, 117.64°W
Report Text: KONT 211635Z 00000KT 1 3/4SM BR OVC006 17/15 A2994 RMK AO2 T01720150
Loading
Personal Weather Stations






























Interactive Weather Map
Tropical Storm Tracking
New forecast layout! Learn more

10-Day Weather Forecast

Advertisements
Track Severe Weather on mobile